sensor_id;sensor_type;location;lat;lon;timestamp;pressure;altitude;pressure_sealevel;temperature;humidity
74242;BME280;62599;49.146;10.426;2023-06-22T01:29:04;95881.09;;;15.83;100.00
74242;BME280;62599;49.146;10.426;2023-06-22T01:31:32;95890.00;;;15.80;100.00
74242;BME280;62599;49.146;10.426;2023-06-22T01:34:02;95882.25;;;15.82;100.00
74242;BME280;62599;49.146;10.426;2023-06-22T01:36:29;95884.69;;;15.87;100.00
74242;BME280;62599;49.146;10.426;2023-06-22T01:38:57;95881.25;;;15.90;100.00
74242;BME280;62599;49.146;10.426;2023-06-22T01:41:26;95882.13;;;15.94;100.00
74242;BME280;62599;49.146;10.426;2023-06-22T01:43:53;95899.19;;;15.95;100.00
74242;BME280;62599;49.146;10.426;2023-06-22T01:46:20;95903.09;;;15.97;100.00
74242;BME280;62599;49.146;10.426;2023-06-22T01:48:47;95904.31;;;16.00;100.00
74242;BME280;62599;49.146;10.426;2023-06-22T01:51:13;95919.41;;;15.97;100.00
74242;BME280;62599;49.146;10.426;2023-06-22T01:53:38;95920.88;;;15.91;100.00
74242;BME280;62599;49.146;10.426;2023-06-22T01:56:04;95930.88;;;15.87;100.00
74242;BME280;62599;49.146;10.426;2023-06-22T01:58:30;95913.44;;;15.88;100.00
74242;BME280;62599;49.146;10.426;2023-06-22T02:01:11;95921.59;;;15.88;100.00
74242;BME280;62599;49.146;10.426;2023-06-22T02:03:42;95928.16;;;15.87;100.00
74242;BME280;62599;49.146;10.426;2023-06-22T02:06:14;95941.69;;;15.83;100.00
74242;BME280;62599;49.146;10.426;2023-06-22T02:08:46;95942.47;;;15.84;100.00
74242;BME280;62599;49.146;10.426;2023-06-22T02:11:13;95942.88;;;15.86;100.00
74242;BME280;62599;49.146;10.426;2023-06-22T02:13:40;95952.19;;;15.85;100.00
74242;BME280;62599;49.146;10.426;2023-06-22T02:16:11;95962.47;;;15.76;100.00
74242;BME280;62599;49.146;10.426;2023-06-22T02:18:38;95960.91;;;15.75;100.00
74242;BME280;62599;49.146;10.426;2023-06-22T02:21:05;95967.56;;;15.77;100.00
74242;BME280;62599;49.146;10.426;2023-06-22T02:23:31;95984.19;;;15.76;100.00
74242;BME280;62599;49.146;10.426;2023-06-22T02:25:58;95980.91;;;15.86;100.00
74242;BME280;62599;49.146;10.426;2023-06-22T02:28:23;95984.22;;;15.95;100.00
74242;BME280;62599;49.146;10.426;2023-06-22T02:30:48;95986.63;;;16.00;100.00
74242;BME280;62599;49.146;10.426;2023-06-22T02:33:14;95976.59;;;16.04;100.00
74242;BME280;62599;49.146;10.426;2023-06-22T02:35:39;95984.03;;;16.07;100.00
74242;BME280;62599;49.146;10.426;2023-06-22T02:38:05;95969.66;;;16.07;100.00
74242;BME280;62599;49.146;10.426;2023-06-22T02:40:30;95975.88;;;16.07;100.00
74242;BME280;62599;49.146;10.426;2023-06-22T02:42:57;95974.63;;;16.01;100.00
74242;BME280;62599;49.146;10.426;2023-06-22T02:45:27;95975.19;;;15.91;100.00
74242;BME280;62599;49.146;10.426;2023-06-22T02:47:53;95978.56;;;15.84;100.00
74242;BME280;62599;49.146;10.426;2023-06-22T02:50:18;95985.41;;;15.78;100.00
74242;BME280;62599;49.146;10.426;2023-06-22T02:52:43;95982.34;;;15.80;100.00
74242;BME280;62599;49.146;10.426;2023-06-22T02:55:09;95971.84;;;15.78;100.00
74242;BME280;62599;49.146;10.426;2023-06-22T02:57:34;95969.75;;;15.72;100.00
74242;BME280;62599;49.146;10.426;2023-06-22T02:59:59;95968.72;;;15.60;100.00
74242;BME280;62599;49.146;10.426;2023-06-22T03:05:37;95957.72;;;15.53;100.00
74242;BME280;62599;49.146;10.426;2023-06-22T03:08:03;95961.56;;;15.52;100.00
74242;BME280;62599;49.146;10.426;2023-06-22T03:10:28;95956.50;;;15.51;100.00
74242;BME280;62599;49.146;10.426;2023-06-22T03:12:54;95959.16;;;15.47;100.00
74242;BME280;62599;49.146;10.426;2023-06-22T03:15:20;95946.38;;;15.48;100.00
74242;BME280;62599;49.146;10.426;2023-06-22T03:17:45;95949.94;;;15.52;100.00
74242;BME280;62599;49.146;10.426;2023-06-22T03:20:11;95957.63;;;15.50;100.00
74242;BME280;62599;49.146;10.426;2023-06-22T03:22:38;95945.84;;;15.42;100.00
74242;BME280;62599;49.146;10.426;2023-06-22T03:25:04;95937.28;;;15.40;100.00
74242;BME280;62599;49.146;10.426;2023-06-22T03:27:29;95927.28;;;15.44;100.00
74242;BME280;62599;49.146;10.426;2023-06-22T03:29:57;95932.72;;;15.44;100.00
74242;BME280;62599;49.146;10.426;2023-06-22T03:32:22;95921.84;;;15.44;100.00
74242;BME280;62599;49.146;10.426;2023-06-22T03:34:47;95913.34;;;15.46;100.00
74242;BME280;62599;49.146;10.426;2023-06-22T03:37:14;95920.41;;;15.50;100.00
74242;BME280;62599;49.146;10.426;2023-06-22T03:39:40;95920.06;;;15.52;100.00
74242;BME280;62599;49.146;10.426;2023-06-22T03:42:06;95925.84;;;15.50;100.00
74242;BME280;62599;49.146;10.426;2023-06-22T03:44:31;95920.84;;;15.52;100.00
74242;BME280;62599;49.146;10.426;2023-06-22T03:46:57;95914.41;;;15.60;100.00
74242;BME280;62599;49.146;10.426;2023-06-22T03:49:22;95918.06;;;15.68;100.00
74242;BME280;62599;49.146;10.426;2023-06-22T03:51:47;95923.16;;;15.70;100.00
74242;BME280;62599;49.146;10.426;2023-06-22T03:54:13;95924.66;;;15.67;100.00
74242;BME280;62599;49.146;10.426;2023-06-22T03:56:38;95929.38;;;15.70;100.00
74242;BME280;62599;49.146;10.426;2023-06-22T03:59:03;95919.06;;;15.79;100.00
74242;BME280;62599;49.146;10.426;2023-06-22T04:01:29;95915.72;;;15.86;100.00
74242;BME280;62599;49.146;10.426;2023-06-22T04:03:54;95913.44;;;15.88;100.00
74242;BME280;62599;49.146;10.426;2023-06-22T04:06:20;95917.00;;;15.92;100.00
74242;BME280;62599;49.146;10.426;2023-06-22T04:08:45;95904.25;;;15.96;100.00
74242;BME280;62599;49.146;10.426;2023-06-22T04:11:16;95900.75;;;15.96;100.00
74242;BME280;62599;49.146;10.426;2023-06-22T04:13:42;95896.41;;;15.91;100.00
74242;BME280;62599;49.146;10.426;2023-06-22T04:16:07;95890.19;;;15.91;100.00
74242;BME280;62599;49.146;10.426;2023-06-22T04:18:35;95894.22;;;16.00;100.00
74242;BME280;62599;49.146;10.426;2023-06-22T04:21:03;95895.16;;;16.08;100.00
74242;BME280;62599;49.146;10.426;2023-06-22T04:23:29;95901.09;;;16.13;100.00
74242;BME280;62599;49.146;10.426;2023-06-22T04:25:54;95914.22;;;16.11;100.00
74242;BME280;62599;49.146;10.426;2023-06-22T04:28:21;95905.41;;;16.18;100.00
74242;BME280;62599;49.146;10.426;2023-06-22T04:30:47;95895.50;;;16.29;100.00
74242;BME280;62599;49.146;10.426;2023-06-22T04:33:14;95896.47;;;16.41;100.00
74242;BME280;62599;49.146;10.426;2023-06-22T04:35:40;95896.34;;;16.56;100.00
74242;BME280;62599;49.146;10.426;2023-06-22T04:38:08;95898.47;;;16.67;100.00
74242;BME280;62599;49.146;10.426;2023-06-22T04:40:33;95891.44;;;16.66;100.00
74242;BME280;62599;49.146;10.426;2023-06-22T04:42:59;95886.03;;;16.69;100.00
74242;BME280;62599;49.146;10.426;2023-06-22T04:45:28;95891.53;;;16.73;100.00
74242;BME280;62599;49.146;10.426;2023-06-22T04:47:54;95896.78;;;16.81;100.00
74242;BME280;62599;49.146;10.426;2023-06-22T04:50:20;95891.78;;;16.87;100.00
74242;BME280;62599;49.146;10.426;2023-06-22T04:52:49;95889.28;;;17.01;100.00
74242;BME280;62599;49.146;10.426;2023-06-22T04:55:15;95886.75;;;17.16;100.00
74242;BME280;62599;49.146;10.426;2023-06-22T04:57:48;95889.22;;;17.28;100.00
74242;BME280;62599;49.146;10.426;2023-06-22T05:00:23;95890.09;;;17.36;100.00
74242;BME280;62599;49.146;10.426;2023-06-22T05:02:49;95895.69;;;17.46;100.00
74242;BME280;62599;49.146;10.426;2023-06-22T05:05:15;95888.41;;;17.54;100.00
74242;BME280;62599;49.146;10.426;2023-06-22T05:07:45;95885.72;;;17.58;100.00
74242;BME280;62599;49.146;10.426;2023-06-22T05:10:13;95884.59;;;17.62;100.00
74242;BME280;62599;49.146;10.426;2023-06-22T05:12:40;95884.63;;;17.66;100.00
74242;BME280;62599;49.146;10.426;2023-06-22T05:15:06;95880.91;;;17.77;100.00
74242;BME280;62599;49.146;10.426;2023-06-22T05:17:32;95872.09;;;17.91;100.00
74242;BME280;62599;49.146;10.426;2023-06-22T05:19:58;95858.94;;;18.00;100.00
74242;BME280;62599;49.146;10.426;2023-06-22T05:22:23;95861.41;;;18.13;100.00
74242;BME280;62599;49.146;10.426;2023-06-22T05:24:48;95859.13;;;18.22;100.00
74242;BME280;62599;49.146;10.426;2023-06-22T05:27:17;95855.72;;;18.32;100.00
74242;BME280;62599;49.146;10.426;2023-06-22T05:29:43;95852.31;;;18.46;100.00
74242;BME280;62599;49.146;10.426;2023-06-22T05:32:08;95852.41;;;18.57;100.00
74242;BME280;62599;49.146;10.426;2023-06-22T05:34:34;95840.00;;;18.70;100.00
74242;BME280;62599;49.146;10.426;2023-06-22T05:36:59;95852.56;;;18.74;100.00
74242;BME280;62599;49.146;10.426;2023-06-22T05:39:25;95852.19;;;18.80;100.00
74242;BME280;62599;49.146;10.426;2023-06-22T05:41:51;95847.94;;;18.86;100.00
74242;BME280;62599;49.146;10.426;2023-06-22T05:44:17;95856.91;;;18.86;100.00
74242;BME280;62599;49.146;10.426;2023-06-22T05:46:44;95851.84;;;18.85;100.00
74242;BME280;62599;49.146;10.426;2023-06-22T05:49:14;95844.50;;;18.96;100.00
74242;BME280;62599;49.146;10.426;2023-06-22T05:51:44;95836.00;;;19.12;100.00
74242;BME280;62599;49.146;10.426;2023-06-22T05:54:09;95834.06;;;19.19;100.00
74242;BME280;62599;49.146;10.426;2023-06-22T05:56:35;95836.44;;;19.32;100.00
74242;BME280;62599;49.146;10.426;2023-06-22T05:59:00;95832.63;;;19.43;100.00
74242;BME280;62599;49.146;10.426;2023-06-22T06:01:26;95845.91;;;19.52;100.00
74242;BME280;62599;49.146;10.426;2023-06-22T06:03:51;95841.66;;;19.62;100.00
74242;BME280;62599;49.146;10.426;2023-06-22T06:06:18;95832.31;;;19.66;100.00
74242;BME280;62599;49.146;10.426;2023-06-22T06:08:43;95826.47;;;19.75;100.00
74242;BME280;62599;49.146;10.426;2023-06-22T06:11:08;95828.84;;;19.87;100.00
74242;BME280;62599;49.146;10.426;2023-06-22T06:13:34;95820.25;;;20.00;100.00
74242;BME280;62599;49.146;10.426;2023-06-22T06:15:59;95821.06;;;20.11;100.00
74242;BME280;62599;49.146;10.426;2023-06-22T06:18:27;95823.78;;;20.18;100.00
74242;BME280;62599;49.146;10.426;2023-06-22T06:20:53;95823.81;;;20.25;100.00
74242;BME280;62599;49.146;10.426;2023-06-22T06:23:18;95817.16;;;20.40;99.74
74242;BME280;62599;49.146;10.426;2023-06-22T06:25:44;95815.63;;;20.54;98.37
74242;BME280;62599;49.146;10.426;2023-06-22T06:28:09;95807.78;;;20.66;96.39
74242;BME280;62599;49.146;10.426;2023-06-22T06:30:34;95816.00;;;20.70;95.12
74242;BME280;62599;49.146;10.426;2023-06-22T06:33:02;95810.88;;;20.72;95.23
74242;BME280;62599;49.146;10.426;2023-06-22T06:35:27;95823.00;;;20.85;95.02
74242;BME280;62599;49.146;10.426;2023-06-22T06:37:53;95813.16;;;20.99;93.49
74242;BME280;62599;49.146;10.426;2023-06-22T06:40:18;95815.09;;;21.05;93.79
74242;BME280;62599;49.146;10.426;2023-06-22T06:42:46;95811.97;;;21.14;92.51
74242;BME280;62599;49.146;10.426;2023-06-22T06:45:14;95807.59;;;21.24;92.57
74242;BME280;62599;49.146;10.426;2023-06-22T06:47:40;95806.00;;;21.41;90.66
74242;BME280;62599;49.146;10.426;2023-06-22T06:50:06;95798.91;;;21.54;90.72
74242;BME280;62599;49.146;10.426;2023-06-22T06:52:31;95798.50;;;21.52;90.57
74242;BME280;62599;49.146;10.426;2023-06-22T06:54:57;95800.06;;;21.49;90.11
74242;BME280;62599;49.146;10.426;2023-06-22T06:57:23;95796.53;;;21.52;90.28
74242;BME280;62599;49.146;10.426;2023-06-22T06:59:49;95804.28;;;21.72;89.07
74242;BME280;62599;49.146;10.426;2023-06-22T07:02:15;95808.91;;;21.82;87.99
74242;BME280;62599;49.146;10.426;2023-06-22T07:04:41;95795.56;;;21.87;88.40
74242;BME280;62599;49.146;10.426;2023-06-22T07:07:07;95787.59;;;22.04;86.83
74242;BME280;62599;49.146;10.426;2023-06-22T07:09:32;95789.84;;;22.23;85.38
74242;BME280;62599;49.146;10.426;2023-06-22T07:11:58;95788.13;;;22.37;84.14
74242;BME280;62599;49.146;10.426;2023-06-22T07:14:23;95793.56;;;22.44;84.22
74242;BME280;62599;49.146;10.426;2023-06-22T07:16:49;95796.88;;;22.69;83.39
74242;BME280;62599;49.146;10.426;2023-06-22T07:19:14;95793.94;;;22.87;81.04
74242;BME280;62599;49.146;10.426;2023-06-22T07:21:39;95789.09;;;23.02;79.66
74242;BME280;62599;49.146;10.426;2023-06-22T07:24:06;95780.41;;;23.07;80.05
74242;BME280;62599;49.146;10.426;2023-06-22T07:26:32;95779.84;;;23.19;78.72
74242;BME280;62599;49.146;10.426;2023-06-22T07:29:00;95775.88;;;23.24;78.54
74242;BME280;62599;49.146;10.426;2023-06-22T07:31:28;95771.53;;;23.26;78.71
74242;BME280;62599;49.146;10.426;2023-06-22T07:33:54;95772.16;;;23.38;78.17
74242;BME280;62599;49.146;10.426;2023-06-22T07:36:19;95771.31;;;23.44;78.14
74242;BME280;62599;49.146;10.426;2023-06-22T07:38:44;95773.44;;;23.60;77.79
74242;BME280;62599;49.146;10.426;2023-06-22T07:41:10;95773.63;;;23.76;76.95
74242;BME280;62599;49.146;10.426;2023-06-22T07:43:35;95772.09;;;23.75;74.51
74242;BME280;62599;49.146;10.426;2023-06-22T07:46:05;95772.59;;;23.94;73.79
74242;BME280;62599;49.146;10.426;2023-06-22T07:48:30;95777.88;;;24.08;73.44
74242;BME280;62599;49.146;10.426;2023-06-22T07:50:56;95774.41;;;24.27;72.76
74242;BME280;62599;49.146;10.426;2023-06-22T07:53:21;95773.44;;;24.41;72.88
74242;BME280;62599;49.146;10.426;2023-06-22T07:55:48;95777.56;;;24.53;72.33
74242;BME280;62599;49.146;10.426;2023-06-22T07:58:13;95777.44;;;24.60;71.67
74242;BME280;62599;49.146;10.426;2023-06-22T08:00:39;95768.09;;;24.54;70.41
74242;BME280;62599;49.146;10.426;2023-06-22T08:03:04;95777.88;;;24.79;70.18
74242;BME280;62599;49.146;10.426;2023-06-22T08:05:30;95781.00;;;24.81;66.01
74242;BME280;62599;49.146;10.426;2023-06-22T08:07:56;95778.59;;;24.83;66.39
74242;BME280;62599;49.146;10.426;2023-06-22T08:10:21;95781.53;;;24.95;67.31
74242;BME280;62599;49.146;10.426;2023-06-22T08:12:47;95783.00;;;25.00;65.61
74242;BME280;62599;49.146;10.426;2023-06-22T08:15:12;95777.41;;;25.04;63.13
74242;BME280;62599;49.146;10.426;2023-06-22T08:17:38;95776.59;;;25.27;60.84
74242;BME280;62599;49.146;10.426;2023-06-22T08:20:05;95761.69;;;25.24;59.63
74242;BME280;62599;49.146;10.426;2023-06-22T08:22:41;95759.56;;;25.32;60.16
74242;BME280;62599;49.146;10.426;2023-06-22T08:25:07;95770.16;;;25.33;59.37
74242;BME280;62599;49.146;10.426;2023-06-22T08:27:33;95772.22;;;25.29;60.59
74242;BME280;62599;49.146;10.426;2023-06-22T08:29:59;95761.31;;;25.22;59.23
74242;BME280;62599;49.146;10.426;2023-06-22T08:32:28;95771.00;;;25.30;59.69
74242;BME280;62599;49.146;10.426;2023-06-22T08:34:54;95768.72;;;25.45;60.36
74242;BME280;62599;49.146;10.426;2023-06-22T08:37:20;95768.56;;;25.52;60.00
74242;BME280;62599;49.146;10.426;2023-06-22T08:39:56;95771.69;;;25.54;60.30
74242;BME280;62599;49.146;10.426;2023-06-22T08:42:21;95764.56;;;25.73;58.49
74242;BME280;62599;49.146;10.426;2023-06-22T08:44:48;95761.81;;;25.73;57.88
74242;BME280;62599;49.146;10.426;2023-06-22T08:47:13;95763.34;;;25.74;59.05
74242;BME280;62599;49.146;10.426;2023-06-22T08:49:39;95759.78;;;25.93;58.26
74242;BME280;62599;49.146;10.426;2023-06-22T08:52:04;95759.09;;;25.89;57.42
74242;BME280;62599;49.146;10.426;2023-06-22T08:54:30;95747.47;;;25.82;57.68
74242;BME280;62599;49.146;10.426;2023-06-22T08:56:58;95753.38;;;25.80;59.08
74242;BME280;62599;49.146;10.426;2023-06-22T08:59:23;95743.47;;;25.99;59.05
74242;BME280;62599;49.146;10.426;2023-06-22T09:01:48;95741.06;;;26.17;58.94
74242;BME280;62599;49.146;10.426;2023-06-22T09:04:14;95739.06;;;26.34;58.77
74242;BME280;62599;49.146;10.426;2023-06-22T09:06:40;95734.84;;;26.46;57.17
74242;BME280;62599;49.146;10.426;2023-06-22T09:09:10;95741.94;;;26.31;57.28
74242;BME280;62599;49.146;10.426;2023-06-22T09:11:36;95732.44;;;26.48;57.80
74242;BME280;62599;49.146;10.426;2023-06-22T09:14:01;95726.16;;;26.77;56.45
74242;BME280;62599;49.146;10.426;2023-06-22T09:16:26;95726.19;;;26.89;56.06
74242;BME280;62599;49.146;10.426;2023-06-22T09:18:52;95731.28;;;26.91;54.89
74242;BME280;62599;49.146;10.426;2023-06-22T09:21:17;95721.00;;;26.92;54.24
74242;BME280;62599;49.146;10.426;2023-06-22T09:23:46;95706.16;;;26.85;55.49
74242;BME280;62599;49.146;10.426;2023-06-22T09:26:15;95702.66;;;26.98;55.57
74242;BME280;62599;49.146;10.426;2023-06-22T09:28:40;95697.91;;;26.98;54.26
74242;BME280;62599;49.146;10.426;2023-06-22T09:31:06;95695.44;;;27.17;54.02
74242;BME280;62599;49.146;10.426;2023-06-22T09:33:32;95697.31;;;27.20;53.22
74242;BME280;62599;49.146;10.426;2023-06-22T09:35:58;95691.56;;;27.27;52.46
74242;BME280;62599;49.146;10.426;2023-06-22T09:38:23;95698.88;;;27.33;51.90
74242;BME280;62599;49.146;10.426;2023-06-22T09:40:48;95697.34;;;27.45;51.51
74242;BME280;62599;49.146;10.426;2023-06-22T09:43:14;95705.53;;;27.62;50.56
74242;BME280;62599;49.146;10.426;2023-06-22T09:45:39;95708.66;;;27.64;50.01
74242;BME280;62599;49.146;10.426;2023-06-22T09:48:05;95709.97;;;27.84;49.82
74242;BME280;62599;49.146;10.426;2023-06-22T09:50:30;95715.88;;;27.87;48.96
74242;BME280;62599;49.146;10.426;2023-06-22T09:52:56;95729.03;;;27.95;49.21
74242;BME280;62599;49.146;10.426;2023-06-22T09:55:22;95742.56;;;27.93;48.04
74242;BME280;62599;49.146;10.426;2023-06-22T09:57:47;95741.44;;;28.03;48.21
74242;BME280;62599;49.146;10.426;2023-06-22T10:00:14;95738.66;;;28.16;48.34
74242;BME280;62599;49.146;10.426;2023-06-22T10:02:43;95740.06;;;28.34;48.27
74242;BME280;62599;49.146;10.426;2023-06-22T10:05:09;95743.41;;;28.41;47.76
74242;BME280;62599;49.146;10.426;2023-06-22T10:07:34;95743.91;;;28.62;47.19
74242;BME280;62599;49.146;10.426;2023-06-22T10:10:05;95755.56;;;28.57;47.27
74242;BME280;62599;49.146;10.426;2023-06-22T10:12:31;95742.63;;;28.75;46.89
74242;BME280;62599;49.146;10.426;2023-06-22T10:14:56;95742.81;;;28.81;45.57
74242;BME280;62599;49.146;10.426;2023-06-22T10:17:21;95739.84;;;28.97;45.88
74242;BME280;62599;49.146;10.426;2023-06-22T10:19:47;95735.00;;;29.01;46.11
74242;BME280;62599;49.146;10.426;2023-06-22T10:22:12;95736.53;;;29.02;45.32
74242;BME280;62599;49.146;10.426;2023-06-22T10:24:38;95732.28;;;29.11;44.48
74242;BME280;62599;49.146;10.426;2023-06-22T10:27:10;95735.63;;;29.27;44.58
74242;BME280;62599;49.146;10.426;2023-06-22T10:29:35;95727.34;;;29.37;44.60
74242;BME280;62599;49.146;10.426;2023-06-22T10:32:01;95728.38;;;29.30;43.97
74242;BME280;62599;49.146;10.426;2023-06-22T10:34:26;95732.59;;;29.35;44.10
74242;BME280;62599;49.146;10.426;2023-06-22T10:36:51;95725.53;;;29.43;44.95
74242;BME280;62599;49.146;10.426;2023-06-22T10:39:17;95720.03;;;29.52;44.61
74242;BME280;62599;49.146;10.426;2023-06-22T10:41:42;95711.81;;;29.70;43.05
74242;BME280;62599;49.146;10.426;2023-06-22T10:44:08;95712.34;;;29.87;43.10
74242;BME280;62599;49.146;10.426;2023-06-22T10:46:33;95705.25;;;29.95;43.48
74242;BME280;62599;49.146;10.426;2023-06-22T10:48:59;95700.53;;;30.14;43.54
74242;BME280;62599;49.146;10.426;2023-06-22T10:51:25;95702.59;;;30.41;43.30
74242;BME280;62599;49.146;10.426;2023-06-22T10:53:51;95688.41;;;30.39;42.86
74242;BME280;62599;49.146;10.426;2023-06-22T10:56:17;95698.09;;;30.35;42.30
74242;BME280;62599;49.146;10.426;2023-06-22T10:58:44;95690.84;;;30.37;42.59
74242;BME280;62599;49.146;10.426;2023-06-22T11:01:09;95697.97;;;30.38;42.42
74242;BME280;62599;49.146;10.426;2023-06-22T11:03:34;95690.41;;;30.48;42.47
74242;BME280;62599;49.146;10.426;2023-06-22T11:06:00;95691.34;;;30.63;42.82
74242;BME280;62599;49.146;10.426;2023-06-22T11:08:25;95685.28;;;30.46;41.79
74242;BME280;62599;49.146;10.426;2023-06-22T11:10:51;95684.69;;;30.61;41.90
74242;BME280;62599;49.146;10.426;2023-06-22T11:13:17;95673.56;;;30.70;41.76
74242;BME280;62599;49.146;10.426;2023-06-22T11:15:43;95668.63;;;30.92;41.19
74242;BME280;62599;49.146;10.426;2023-06-22T11:18:08;95657.28;;;31.24;40.69
74242;BME280;62599;49.146;10.426;2023-06-22T11:20:34;95662.22;;;31.38;39.91
74242;BME280;62599;49.146;10.426;2023-06-22T11:23:07;95661.28;;;31.32;40.26
74242;BME280;62599;49.146;10.426;2023-06-22T11:25:33;95665.34;;;31.64;39.50
74242;BME280;62599;49.146;10.426;2023-06-22T11:28:02;95658.13;;;31.91;39.54
74242;BME280;62599;49.146;10.426;2023-06-22T11:30:27;95663.72;;;32.15;39.12
74242;BME280;62599;49.146;10.426;2023-06-22T11:32:53;95662.78;;;32.18;38.51
74242;BME280;62599;49.146;10.426;2023-06-22T11:35:18;95653.66;;;32.56;39.04
74242;BME280;62599;49.146;10.426;2023-06-22T11:37:43;95652.78;;;32.50;38.94
74242;BME280;62599;49.146;10.426;2023-06-22T11:40:09;95637.53;;;32.75;38.25
74242;BME280;62599;49.146;10.426;2023-06-22T11:42:35;95630.59;;;32.70;38.24
74242;BME280;62599;49.146;10.426;2023-06-22T11:45:01;95630.03;;;32.66;38.32
74242;BME280;62599;49.146;10.426;2023-06-22T11:47:26;95626.75;;;32.82;38.46
74242;BME280;62599;49.146;10.426;2023-06-22T11:49:52;95633.00;;;32.77;37.70
74242;BME280;62599;49.146;10.426;2023-06-22T11:52:18;95632.34;;;32.82;37.67
74242;BME280;62599;49.146;10.426;2023-06-22T11:54:44;95627.16;;;32.90;36.67
74242;BME280;62599;49.146;10.426;2023-06-22T11:57:10;95626.81;;;33.12;36.80
74242;BME280;62599;49.146;10.426;2023-06-22T11:59:36;95622.94;;;33.10;36.75
74242;BME280;62599;49.146;10.426;2023-06-22T12:02:01;95618.50;;;33.18;36.34
74242;BME280;62599;49.146;10.426;2023-06-22T12:04:27;95612.75;;;33.06;37.73
74242;BME280;62599;49.146;10.426;2023-06-22T12:06:52;95619.28;;;33.18;36.54
74242;BME280;62599;49.146;10.426;2023-06-22T12:09:18;95620.41;;;33.41;35.61
74242;BME280;62599;49.146;10.426;2023-06-22T12:11:43;95626.88;;;33.33;35.23
74242;BME280;62599;49.146;10.426;2023-06-22T12:14:08;95612.44;;;33.04;36.75
74242;BME280;62599;49.146;10.426;2023-06-22T12:16:34;95621.56;;;33.35;36.11
74242;BME280;62599;49.146;10.426;2023-06-22T12:19:00;95623.44;;;33.73;35.43
74242;BME280;62599;49.146;10.426;2023-06-22T12:21:26;95614.00;;;33.70;35.34
74242;BME280;62599;49.146;10.426;2023-06-22T12:23:51;95609.19;;;33.71;35.20
74242;BME280;62599;49.146;10.426;2023-06-22T12:26:16;95616.88;;;34.11;35.27
74242;BME280;62599;49.146;10.426;2023-06-22T12:28:42;95612.16;;;34.43;33.58
74242;BME280;62599;49.146;10.426;2023-06-22T12:31:07;95617.38;;;34.77;33.54
74242;BME280;62599;49.146;10.426;2023-06-22T12:33:32;95611.22;;;34.98;32.94
74242;BME280;62599;49.146;10.426;2023-06-22T12:35:58;95609.19;;;34.99;33.14
74242;BME280;62599;49.146;10.426;2023-06-22T12:38:23;95613.75;;;34.70;34.01
74242;BME280;62599;49.146;10.426;2023-06-22T12:40:52;95611.38;;;34.89;34.36
74242;BME280;62599;49.146;10.426;2023-06-22T12:43:17;95602.97;;;34.89;33.72
74242;BME280;62599;49.146;10.426;2023-06-22T12:45:43;95618.97;;;34.57;34.28
74242;BME280;62599;49.146;10.426;2023-06-22T12:48:11;95604.69;;;34.35;34.46
74242;BME280;62599;49.146;10.426;2023-06-22T12:50:38;95605.03;;;34.42;34.07
74242;BME280;62599;49.146;10.426;2023-06-22T12:53:06;95609.66;;;34.25;33.78
74242;BME280;62599;49.146;10.426;2023-06-22T12:55:32;95612.75;;;34.07;34.25
74242;BME280;62599;49.146;10.426;2023-06-22T12:57:57;95611.69;;;34.04;34.33
74242;BME280;62599;49.146;10.426;2023-06-22T13:00:23;95617.16;;;33.78;35.03
74242;BME280;62599;49.146;10.426;2023-06-22T13:02:48;95616.34;;;33.57;34.99
74242;BME280;62599;49.146;10.426;2023-06-22T13:05:13;95629.00;;;33.38;35.29
74242;BME280;62599;49.146;10.426;2023-06-22T13:07:39;95616.41;;;33.13;35.63
74242;BME280;62599;49.146;10.426;2023-06-22T13:10:05;95629.50;;;33.06;35.92
74242;BME280;62599;49.146;10.426;2023-06-22T13:12:30;95610.13;;;32.88;36.56
74242;BME280;62599;49.146;10.426;2023-06-22T13:14:56;95591.16;;;32.92;36.48
74242;BME280;62599;49.146;10.426;2023-06-22T13:17:21;95578.72;;;33.08;36.00
74242;BME280;62599;49.146;10.426;2023-06-22T13:19:46;95571.38;;;33.40;36.16
74242;BME280;62599;49.146;10.426;2023-06-22T13:22:47;95577.50;;;33.44;36.79
74242;BME280;62599;49.146;10.426;2023-06-22T13:25:34;95584.13;;;33.97;35.81
74242;BME280;62599;49.146;10.426;2023-06-22T13:27:59;95593.06;;;34.42;35.38
74242;BME280;62599;49.146;10.426;2023-06-22T13:30:25;95601.50;;;34.68;34.89
74242;BME280;62599;49.146;10.426;2023-06-22T13:32:50;95599.38;;;34.83;34.81
74242;BME280;62599;49.146;10.426;2023-06-22T13:35:15;95600.91;;;34.84;34.49
74242;BME280;62599;49.146;10.426;2023-06-22T13:37:41;95597.44;;;34.95;34.41
74242;BME280;62599;49.146;10.426;2023-06-22T13:40:07;95588.06;;;34.98;34.68
74242;BME280;62599;49.146;10.426;2023-06-22T13:42:33;95584.88;;;34.85;34.38
74242;BME280;62599;49.146;10.426;2023-06-22T13:44:58;95595.19;;;34.73;34.69
74242;BME280;62599;49.146;10.426;2023-06-22T13:47:24;95586.41;;;34.86;34.96
74242;BME280;62599;49.146;10.426;2023-06-22T13:49:49;95579.72;;;35.04;34.92
74242;BME280;62599;49.146;10.426;2023-06-22T13:52:14;95579.78;;;35.47;34.51
74242;BME280;62599;49.146;10.426;2023-06-22T13:54:40;95584.09;;;35.42;34.37
74242;BME280;62599;49.146;10.426;2023-06-22T13:57:06;95602.34;;;35.00;34.02
74242;BME280;62599;49.146;10.426;2023-06-22T13:59:31;95603.56;;;34.93;34.77
74242;BME280;62599;49.146;10.426;2023-06-22T14:01:56;95605.03;;;34.63;34.67
74242;BME280;62599;49.146;10.426;2023-06-22T14:04:25;95602.16;;;34.37;35.38
74242;BME280;62599;49.146;10.426;2023-06-22T14:06:50;95594.75;;;34.13;35.40
74242;BME280;62599;49.146;10.426;2023-06-22T14:09:18;95592.97;;;34.10;35.38
74242;BME280;62599;49.146;10.426;2023-06-22T14:11:44;95584.63;;;33.95;36.01